Time;durP1;ratioP1;P1;durP2;ratioP2;P2;SDS_P1;SDS_P2;PMS_P1;PMS_P2;Temp;Humidity;BMP_temperature;BMP_pressure;BME280_temperature;BME280_humidity;BME280_pressure;Samples;Min_cycle;Max_cycle;Signal;HPM_P1;HPM_P2
2021/04/17 00:02:12;;;;;;;;;;;16.90;98.20;;;;;;4984919;28;19941;-69
2021/04/17 00:04:39;;;;;;;;;;;16.90;98.50;;;;;;5013199;28;19925;-69
2021/04/17 00:07:13;;;;;;;;;;;16.90;98.20;;;;;;5003113;28;19934;-68
2021/04/17 00:09:41;;;;;;;;;;;16.90;98.00;;;;;;5000894;28;19913;-69
2021/04/17 00:12:12;;;;;;;;;;;16.90;97.30;;;;;;5003366;28;20368;-70
2021/04/17 00:14:40;;;;;;;;;;;17.00;98.00;;;;;;5003380;28;19913;-71
2021/04/17 00:17:07;;;;;;;;;;;17.10;97.70;;;;;;5001785;28;20315;-70
2021/04/17 00:19:35;;;;;;;;;;;17.30;96.70;;;;;;5004256;28;19999;-73
2021/04/17 00:22:02;;;;;;;;;;;17.40;96.10;;;;;;5012700;28;19914;-70
2021/04/17 00:24:29;;;;;;;;;;;17.40;95.90;;;;;;5011618;28;19921;-72
2021/04/17 00:26:56;;;;;;;;;;;17.30;95.00;;;;;;5013419;28;20024;-73
2021/04/17 00:29:23;;;;;;;;;;;17.30;95.60;;;;;;5016450;28;20357;-71
2021/04/17 00:31:49;;;;;;;;;;;17.40;95.40;;;;;;5014706;28;20307;-69
2021/04/17 00:34:16;;;;;;;;;;;17.40;95.00;;;;;;5016004;28;19925;-70
2021/04/17 00:36:43;;;;;;;;;;;17.40;95.10;;;;;;5014319;28;19913;-69
2021/04/17 00:39:10;;;;;;;;;;;17.40;95.60;;;;;;5007328;28;19945;-70
2021/04/17 00:41:37;;;;;;;;;;;17.40;96.40;;;;;;5006308;28;19945;-70
2021/04/17 00:44:04;;;;;;;;;;;17.40;96.00;;;;;;5022134;28;20296;-70
2021/04/17 00:46:32;;;;;;;;;;;17.40;96.00;;;;;;5003617;28;19960;-70
2021/04/17 00:48:58;;;;;;;;;;;17.40;96.40;;;;;;5015689;28;19913;-70
2021/04/17 00:51:25;;;;;;;;;;;17.40;96.50;;;;;;5026279;28;19909;-69
2021/04/17 00:53:52;;;;;;;;;;;17.50;96.20;;;;;;5017484;28;19922;-70
2021/04/17 00:56:20;;;;;;;;;;;17.50;95.70;;;;;;5016381;28;20271;-70
2021/04/17 00:58:47;;;;;;;;;;;17.60;95.90;;;;;;5015942;28;19913;-70
2021/04/17 01:01:14;;;;;;;;;;;17.60;95.20;;;;;;4996779;28;19909;-71
2021/04/17 01:03:40;;;;;;;;;;;17.60;95.00;;;;;;5003677;28;19922;-70
2021/04/17 01:06:19;;;;;;;;;;;17.60;95.50;;;;;;5015038;28;19917;-71
2021/04/17 01:08:53;;;;;;;;;;;17.70;95.70;;;;;;5005619;28;20000;-70
2021/04/17 01:11:43;;;;;;;;;;;17.70;95.30;;;;;;5001788;28;19920;-72
2021/04/17 01:14:10;;;;;;;;;;;17.80;95.80;;;;;;5004597;28;20008;-69
2021/04/17 01:16:37;;;;;;;;;;;17.80;95.00;;;;;;4996627;28;20729;-70
2021/04/17 01:19:09;;;;;;;;;;;17.90;93.60;;;;;;5014174;28;20016;-70
2021/04/17 01:21:36;;;;;;;;;;;17.90;93.70;;;;;;5013933;28;19913;-71
2021/04/17 01:24:07;;;;;;;;;;;18.00;93.70;;;;;;5013596;28;19928;-69
2021/04/17 01:26:34;;;;;;;;;;;18.00;92.10;;;;;;5012023;28;19939;-70
2021/04/17 01:29:01;;;;;;;;;;;18.00;92.60;;;;;;5005037;28;20008;-70
2021/04/17 01:31:32;;;;;;;;;;;18.10;93.20;;;;;;4994570;28;19917;-70
2021/04/17 01:34:01;;;;;;;;;;;18.10;93.50;;;;;;5007042;28;19920;-70
2021/04/17 01:36:29;;;;;;;;;;;18.30;93.60;;;;;;4993938;28;20028;-70
2021/04/17 01:39:01;;;;;;;;;;;18.30;92.90;;;;;;4998250;28;20392;-70
2021/04/17 01:41:31;;;;;;;;;;;18.30;92.10;;;;;;5013289;28;20279;-71
2021/04/17 01:43:59;;;;;;;;;;;18.30;92.00;;;;;;5001684;28;19944;-71
2021/04/17 01:46:27;;;;;;;;;;;18.30;92.00;;;;;;5013151;28;19956;-71
2021/04/17 01:49:02;;;;;;;;;;;18.30;90.80;;;;;;5013497;28;19913;-70
2021/04/17 01:51:29;;;;;;;;;;;18.30;91.80;;;;;;5011988;28;20060;-70
2021/04/17 01:53:59;;;;;;;;;;;18.30;91.90;;;;;;5009222;28;20315;-70
2021/04/17 01:56:26;;;;;;;;;;;18.30;91.80;;;;;;4995452;28;20299;-70
2021/04/17 01:58:53;;;;;;;;;;;18.30;91.90;;;;;;4994062;28;19996;-70
2021/04/17 02:01:20;;;;;;;;;;;18.30;92.30;;;;;;4993539;28;19914;-70
2021/04/17 02:03:47;;;;;;;;;;;18.30;91.60;;;;;;4993297;28;19980;-71
2021/04/17 02:06:14;;;;;;;;;;;18.30;91.90;;;;;;5012452;28;20338;-72
2021/04/17 02:08:41;;;;;;;;;;;18.20;91.70;;;;;;5013550;28;19913;-71
2021/04/17 02:11:08;;;;;;;;;;;18.20;91.80;;;;;;5012909;28;19917;-72
2021/04/17 02:13:35;;;;;;;;;;;18.20;90.70;;;;;;5013308;28;20368;-71
2021/04/17 02:16:04;;;;;;;;;;;18.20;91.80;;;;;;5011492;28;19917;-69
2021/04/17 02:18:46;;;;;;;;;;;18.20;91.60;;;;;;5012682;28;19964;-69
2021/04/17 02:21:15;;;;;;;;;;;18.20;91.20;;;;;;5012904;28;19910;-70
2021/04/17 02:23:42;;;;;;;;;;;18.10;91.00;;;;;;5008699;28;19926;-69
2021/04/17 02:26:08;;;;;;;;;;;18.20;92.20;;;;;;5012684;28;20330;-69
2021/04/17 02:28:35;;;;;;;;;;;18.10;91.30;;;;;;5012134;28;19940;-71
2021/04/17 02:31:02;;;;;;;;;;;18.10;91.20;;;;;;5011791;28;20287;-69
2021/04/17 02:33:29;;;;;;;;;;;18.10;90.90;;;;;;5012478;28;20403;-70
2021/04/17 02:35:56;;;;;;;;;;;18.10;90.90;;;;;;5012474;28;20032;-70
2021/04/17 02:38:23;;;;;;;;;;;18.10;90.90;;;;;;5007260;28;19940;-70
2021/04/17 02:40:49;;;;;;;;;;;18.10;91.20;;;;;;4992608;28;19917;-71
2021/04/17 02:43:16;;;;;;;;;;;18.10;91.20;;;;;;5001232;28;19922;-70
2021/04/17 02:45:43;;;;;;;;;;;18.10;91.00;;;;;;5001221;28;20356;-69
2021/04/17 02:48:09;;;;;;;;;;;18.10;91.50;;;;;;5011225;28;20288;-70
2021/04/17 02:50:36;;;;;;;;;;;18.10;91.10;;;;;;5010961;28;19992;-70
2021/04/17 02:53:03;;;;;;;;;;;18.10;91.30;;;;;;5011736;28;19913;-71
2021/04/17 02:55:29;;;;;;;;;;;18.10;90.50;;;;;;5011330;28;19918;-69
2021/04/17 02:57:56;;;;;;;;;;;18.10;90.80;;;;;;5010974;28;20024;-68
2021/04/17 03:00:23;;;;;;;;;;;18.10;90.20;;;;;;5011397;28;19910;-69
2021/04/17 03:02:52;;;;;;;;;;;18.10;90.50;;;;;;5010092;28;20008;-70
2021/04/17 03:05:19;;;;;;;;;;;18.10;90.40;;;;;;5010934;28;20285;-70
2021/04/17 03:07:47;;;;;;;;;;;18.10;90.40;;;;;;5010845;28;19917;-71
2021/04/17 03:10:14;;;;;;;;;;;18.00;90.10;;;;;;5010899;28;20276;-73
2021/04/17 03:12:40;;;;;;;;;;;18.00;90.30;;;;;;5011393;28;19975;-72
2021/04/17 03:15:08;;;;;;;;;;;18.00;90.20;;;;;;5010558;28;19919;-73
2021/04/17 03:17:35;;;;;;;;;;;18.00;90.20;;;;;;5009704;28;19914;-72
2021/04/17 03:20:04;;;;;;;;;;;18.10;90.10;;;;;;5011571;28;19917;-72
2021/04/17 03:22:30;;;;;;;;;;;18.00;90.20;;;;;;5011524;28;19917;-72
2021/04/17 03:24:57;;;;;;;;;;;18.00;89.60;;;;;;5010534;28;19949;-71
2021/04/17 03:27:23;;;;;;;;;;;18.00;90.10;;;;;;5011400;28;19917;-69
2021/04/17 03:29:50;;;;;;;;;;;18.00;90.70;;;;;;5011085;28;19925;-69
2021/04/17 03:32:17;;;;;;;;;;;18.00;90.60;;;;;;5011249;28;19949;-70
2021/04/17 03:34:43;;;;;;;;;;;18.10;90.10;;;;;;5010521;28;19979;-70
2021/04/17 03:37:10;;;;;;;;;;;18.00;90.00;;;;;;5010950;28;19909;-70
2021/04/17 03:39:37;;;;;;;;;;;18.00;88.80;;;;;;5010717;28;20040;-71
2021/04/17 03:42:03;;;;;;;;;;;18.00;89.60;;;;;;5010222;28;20746;-70
2021/04/17 03:44:30;;;;;;;;;;;18.00;90.30;;;;;;5010466;28;20371;-70
2021/04/17 03:46:57;;;;;;;;;;;18.00;90.30;;;;;;5010603;28;19921;-71
2021/04/17 03:49:23;;;;;;;;;;;18.00;90.50;;;;;;5010368;28;20339;-71
2021/04/17 03:51:50;;;;;;;;;;;18.00;90.60;;;;;;5010871;28;19910;-69
2021/04/17 03:54:17;;;;;;;;;;;18.00;90.40;;;;;;5010525;28;20017;-71
2021/04/17 03:56:43;;;;;;;;;;;18.00;90.20;;;;;;5010442;28;19914;-69
2021/04/17 03:59:10;;;;;;;;;;;18.00;90.30;;;;;;5009816;28;19917;-71
2021/04/17 04:01:37;;;;;;;;;;;18.00;91.00;;;;;;5009548;28;19918;-70
2021/04/17 04:04:03;;;;;;;;;;;18.00;90.00;;;;;;5003768;28;19988;-71
2021/04/17 04:06:30;;;;;;;;;;;18.00;90.30;;;;;;5010544;28;20020;-69
2021/04/17 04:08:57;;;;;;;;;;;18.00;90.40;;;;;;5009269;28;19917;-71
2021/04/17 04:11:23;;;;;;;;;;;18.00;90.60;;;;;;5009871;28;20048;-70
2021/04/17 04:13:50;;;;;;;;;;;18.00;90.60;;;;;;5009667;28;19914;-70
2021/04/17 04:16:17;;;;;;;;;;;18.00;90.90;;;;;;5010140;28;19924;-71
2021/04/17 04:18:43;;;;;;;;;;;18.00;90.60;;;;;;5009600;28;19917;-69
2021/04/17 04:21:10;;;;;;;;;;;18.00;90.60;;;;;;5009479;28;20423;-71
2021/04/17 04:23:36;;;;;;;;;;;18.00;90.60;;;;;;5009878;28;20371;-70
2021/04/17 04:26:03;;;;;;;;;;;18.00;91.90;;;;;;5010185;28;19921;-70
2021/04/17 04:28:30;;;;;;;;;;;17.90;90.80;;;;;;5010239;28;19923;-70
2021/04/17 04:30:57;;;;;;;;;;;18.00;91.60;;;;;;5010042;28;20007;-71
2021/04/17 04:33:24;;;;;;;;;;;18.00;91.70;;;;;;4992740;28;19916;-72
2021/04/17 04:35:50;;;;;;;;;;;18.00;91.10;;;;;;5012020;28;19921;-72
2021/04/17 04:38:17;;;;;;;;;;;18.00;91.10;;;;;;5013416;28;19909;-69
2021/04/17 04:40:44;;;;;;;;;;;18.00;91.60;;;;;;5014411;28;19945;-72
2021/04/17 04:43:10;;;;;;;;;;;18.00;90.60;;;;;;5015123;28;19918;-70
2021/04/17 04:45:37;;;;;;;;;;;18.00;90.80;;;;;;5013202;28;19920;-70
2021/04/17 04:48:04;;;;;;;;;;;18.00;90.80;;;;;;5014482;28;20712;-70
2021/04/17 04:50:31;;;;;;;;;;;18.00;91.10;;;;;;5012987;28;19909;-70
2021/04/17 04:52:57;;;;;;;;;;;18.00;91.60;;;;;;5011739;28;19999;-71
2021/04/17 04:55:24;;;;;;;;;;;18.00;92.00;;;;;;5011890;28;20311;-70
2021/04/17 04:57:51;;;;;;;;;;;18.00;92.50;;;;;;5011546;28;19910;-70
2021/04/17 05:00:18;;;;;;;;;;;18.10;92.80;;;;;;5010435;28;19918;-69
2021/04/17 05:02:44;;;;;;;;;;;18.10;93.00;;;;;;5010912;28;19925;-70
2021/04/17 05:05:12;;;;;;;;;;;18.10;93.20;;;;;;5009939;28;19920;-71
2021/04/17 05:07:39;;;;;;;;;;;18.10;93.90;;;;;;5009954;28;20008;-69
2021/04/17 05:10:06;;;;;;;;;;;18.10;94.40;;;;;;5003588;28;19920;-72
2021/04/17 05:12:33;;;;;;;;;;;18.10;95.20;;;;;;4990714;28;20066;-72
2021/04/17 05:14:59;;;;;;;;;;;18.10;95.40;;;;;;4993430;28;19909;-71
2021/04/17 05:17:26;;;;;;;;;;;18.10;95.60;;;;;;5000322;28;19917;-70
2021/04/17 05:19:53;;;;;;;;;;;18.10;95.90;;;;;;5013418;28;20499;-71
2021/04/17 05:22:20;;;;;;;;;;;18.00;96.10;;;;;;5012859;28;20124;-71
2021/04/17 05:24:46;;;;;;;;;;;18.00;96.10;;;;;;5013124;28;19921;-69
2021/04/17 05:27:13;;;;;;;;;;;18.00;96.40;;;;;;5013041;28;19909;-70
2021/04/17 05:29:40;;;;;;;;;;;18.00;96.90;;;;;;5012938;28;19976;-71
2021/04/17 05:32:07;;;;;;;;;;;18.00;96.90;;;;;;5013253;28;19923;-70
2021/04/17 05:34:35;;;;;;;;;;;18.00;96.50;;;;;;5013118;28;19913;-71
2021/04/17 05:37:01;;;;;;;;;;;18.00;96.90;;;;;;5012606;28;20704;-72
2021/04/17 05:39:28;;;;;;;;;;;18.00;97.30;;;;;;5012970;28;19956;-71
2021/04/17 05:41:55;;;;;;;;;;;18.00;97.70;;;;;;5012445;28;20016;-70
2021/04/17 05:44:22;;;;;;;;;;;18.00;97.90;;;;;;5012532;28;20289;-72
2021/04/17 05:46:48;;;;;;;;;;;17.90;98.00;;;;;;5012712;28;19909;-70
2021/04/17 05:49:15;;;;;;;;;;;18.00;98.20;;;;;;5012750;28;20371;-69
2021/04/17 05:51:42;;;;;;;;;;;18.00;97.90;;;;;;5013014;28;20008;-68
2021/04/17 05:54:11;;;;;;;;;;;18.00;97.90;;;;;;5012288;28;20334;-70
2021/04/17 05:56:38;;;;;;;;;;;18.00;98.20;;;;;;5012165;28;19918;-71
2021/04/17 05:59:05;;;;;;;;;;;18.00;98.50;;;;;;5012574;28;20586;-70
2021/04/17 06:01:32;;;;;;;;;;;17.90;98.60;;;;;;5012510;28;19933;-70
2021/04/17 06:03:59;;;;;;;;;;;17.80;98.70;;;;;;5012486;28;20012;-70
2021/04/17 06:06:25;;;;;;;;;;;17.80;99.20;;;;;;5012109;28;20015;-70
2021/04/17 06:08:52;;;;;;;;;;;17.80;99.00;;;;;;5012398;28;20376;-70
2021/04/17 06:11:19;;;;;;;;;;;17.70;99.20;;;;;;5012413;28;20364;-70
2021/04/17 06:13:46;;;;;;;;;;;17.70;99.30;;;;;;5013399;28;20428;-72
2021/04/17 06:16:13;;;;;;;;;;;17.70;99.40;;;;;;5014438;28;19909;-71
2021/04/17 06:18:39;;;;;;;;;;;17.80;99.30;;;;;;5014448;28;19910;-70
2021/04/17 06:21:06;;;;;;;;;;;17.70;99.20;;;;;;5014354;28;19910;-71
2021/04/17 06:23:36;;;;;;;;;;;17.80;99.20;;;;;;5014209;28;19918;-70
2021/04/17 06:26:02;;;;;;;;;;;17.70;99.30;;;;;;5013556;28;19918;-68
2021/04/17 06:28:33;;;;;;;;;;;17.70;99.30;;;;;;5013898;28;20311;-72
2021/04/17 06:31:00;;;;;;;;;;;17.70;99.40;;;;;;5013780;28;20378;-70
2021/04/17 06:33:27;;;;;;;;;;;17.70;99.00;;;;;;4996707;28;19917;-70
2021/04/17 06:35:53;;;;;;;;;;;17.70;99.00;;;;;;5014503;28;19953;-70
2021/04/17 06:38:20;;;;;;;;;;;17.60;99.20;;;;;;5014799;28;19910;-71
2021/04/17 06:40:49;;;;;;;;;;;17.70;98.90;;;;;;5014302;28;20356;-70
2021/04/17 06:43:17;;;;;;;;;;;17.60;98.90;;;;;;5013944;28;20415;-72
2021/04/17 06:45:45;;;;;;;;;;;17.60;99.20;;;;;;5014607;28;19918;-72
2021/04/17 06:48:13;;;;;;;;;;;17.60;99.50;;;;;;5014611;28;19933;-71
2021/04/17 06:50:39;;;;;;;;;;;17.60;99.70;;;;;;5014608;28;19952;-71
2021/04/17 06:53:09;;;;;;;;;;;17.60;99.80;;;;;;5014408;28;19933;-71
2021/04/17 06:55:37;;;;;;;;;;;17.60;99.90;;;;;;4996858;28;19909;-70
2021/04/17 06:58:03;;;;;;;;;;;17.60;99.60;;;;;;5014093;28;19945;-70
2021/04/17 07:00:30;;;;;;;;;;;17.60;99.40;;;;;;5014231;28;19910;-70
2021/04/17 07:02:57;;;;;;;;;;;17.60;98.70;;;;;;5013776;28;19922;-71
2021/04/17 07:05:24;;;;;;;;;;;17.60;98.20;;;;;;5017755;28;19913;-71
2021/04/17 07:07:50;;;;;;;;;;;17.50;97.70;;;;;;5033844;28;19952;-71
2021/04/17 07:10:17;;;;;;;;;;;17.60;97.30;;;;;;5025935;28;19920;-72
2021/04/17 07:12:45;;;;;;;;;;;17.60;97.40;;;;;;5013697;28;19909;-71
2021/04/17 07:15:13;;;;;;;;;;;17.60;97.60;;;;;;5013310;28;20369;-72
2021/04/17 07:17:39;;;;;;;;;;;17.60;97.00;;;;;;5000456;28;19914;-72
2021/04/17 07:20:07;;;;;;;;;;;17.50;97.30;;;;;;4994473;28;20009;-71
2021/04/17 07:22:35;;;;;;;;;;;17.50;97.80;;;;;;4994301;28;19917;-68
2021/04/17 07:25:05;;;;;;;;;;;17.50;97.70;;;;;;4994112;28;20307;-70
2021/04/17 07:27:35;;;;;;;;;;;17.60;97.90;;;;;;4994294;28;20368;-70
2021/04/17 07:30:05;;;;;;;;;;;17.50;98.40;;;;;;4993762;28;19929;-71
2021/04/17 07:32:31;;;;;;;;;;;17.50;98.50;;;;;;4994137;28;19917;-71
2021/04/17 07:35:16;;;;;;;;;;;17.50;98.90;;;;;;4992646;28;20327;-71
2021/04/17 07:37:45;;;;;;;;;;;17.50;99.10;;;;;;4992703;28;20001;-71
2021/04/17 07:40:20;;;;;;;;;;;17.40;99.40;;;;;;4993953;28;20004;-70
2021/04/17 07:42:51;;;;;;;;;;;17.40;99.30;;;;;;5008248;28;19972;-71
2021/04/17 07:45:18;;;;;;;;;;;17.30;99.80;;;;;;5012022;28;19920;-71
2021/04/17 07:47:44;;;;;;;;;;;17.30;99.80;;;;;;5013137;28;19921;-72
2021/04/17 07:50:12;;;;;;;;;;;17.30;99.90;;;;;;5009858;28;19913;-73
2021/04/17 07:52:38;;;;;;;;;;;17.30;99.80;;;;;;5012467;28;20366;-72
2021/04/17 07:55:07;;;;;;;;;;;17.20;99.90;;;;;;5012313;28;19914;-73
2021/04/17 07:57:35;;;;;;;;;;;17.30;99.90;;;;;;5013015;28;19917;-73
2021/04/17 08:00:04;;;;;;;;;;;17.20;99.90;;;;;;5012846;28;19913;-74
2021/04/17 08:02:30;;;;;;;;;;;17.20;99.90;;;;;;5013028;28;19920;-73
2021/04/17 08:04:59;;;;;;;;;;;17.20;99.90;;;;;;5013158;28;19918;-73
2021/04/17 08:07:26;;;;;;;;;;;17.20;99.90;;;;;;5012273;28;19959;-72
2021/04/17 08:09:54;;;;;;;;;;;17.10;99.90;;;;;;5013360;28;19917;-72
2021/04/17 08:12:21;;;;;;;;;;;17.10;99.90;;;;;;5013158;28;19916;-74
2021/04/17 08:14:48;;;;;;;;;;;17.10;99.90;;;;;;5012504;28;20356;-72
2021/04/17 08:17:15;;;;;;;;;;;17.10;99.80;;;;;;5012890;28;20015;-73
2021/04/17 08:19:41;;;;;;;;;;;17.10;99.60;;;;;;5011910;28;19913;-73
2021/04/17 08:22:08;;;;;;;;;;;17.10;99.70;;;;;;5012384;28;20299;-73
2021/04/17 08:24:35;;;;;;;;;;;17.00;99.50;;;;;;5012901;28;20088;-73
2021/04/17 08:27:02;;;;;;;;;;;17.00;99.40;;;;;;5012725;28;20544;-72
2021/04/17 08:30:07;;;;;;;;;;;16.90;99.20;;;;;;5012577;28;19917;-72
2021/04/17 08:32:34;;;;;;;;;;;17.00;99.30;;;;;;4982944;28;20008;-73
2021/04/17 08:35:03;;;;;;;;;;;17.00;99.10;;;;;;5012929;28;19975;-73
2021/04/17 08:37:30;;;;;;;;;;;17.00;99.30;;;;;;5012306;28;19909;-72
2021/04/17 08:39:58;;;;;;;;;;;17.10;98.90;;;;;;4992038;28;19910;-70
2021/04/17 08:42:39;;;;;;;;;;;17.10;99.00;;;;;;4993173;28;20261;-72
2021/04/17 08:45:10;;;;;;;;;;;17.10;98.90;;;;;;4993235;28;19972;-70
2021/04/17 08:47:46;;;;;;;;;;;17.10;98.90;;;;;;4994008;28;19976;-72
2021/04/17 08:50:27;;;;;;;;;;;17.00;98.70;;;;;;4997150;28;19910;-70
2021/04/17 08:53:25;;;;;;;;;;;17.00;98.60;;;;;;4997041;28;19916;-71
2021/04/17 08:55:52;;;;;;;;;;;17.00;98.80;;;;;;4964206;28;20395;-72
2021/04/17 08:58:20;;;;;;;;;;;16.90;98.60;;;;;;4997081;28;20009;-71
2021/04/17 09:00:53;;;;;;;;;;;16.90;98.80;;;;;;4996895;28;20356;-71
2021/04/17 09:03:38;;;;;;;;;;;16.90;98.80;;;;;;4996880;28;19917;-71
2021/04/17 09:06:17;;;;;;;;;;;16.80;99.10;;;;;;4996871;28;20479;-71
2021/04/17 09:08:43;;;;;;;;;;;16.80;98.50;;;;;;4996669;28;19917;-72
2021/04/17 09:11:28;;;;;;;;;;;16.80;98.90;;;;;;4997147;28;20005;-72
2021/04/17 09:13:55;;;;;;;;;;;16.80;98.80;;;;;;4996751;28;19936;-70
2021/04/17 09:16:41;;;;;;;;;;;16.70;99.00;;;;;;4996846;28;20408;-72
2021/04/17 09:19:08;;;;;;;;;;;16.70;99.20;;;;;;4996430;28;19914;-70
2021/04/17 09:21:35;;;;;;;;;;;16.70;99.40;;;;;;4996823;28;19910;-70
2021/04/17 09:24:03;;;;;;;;;;;16.70;99.60;;;;;;4996604;28;19918;-70
2021/04/17 09:26:30;;;;;;;;;;;16.70;99.50;;;;;;4996487;28;19910;-71
2021/04/17 09:29:02;;;;;;;;;;;16.70;99.60;;;;;;4996261;28;20311;-72
2021/04/17 09:31:33;;;;;;;;;;;16.60;99.60;;;;;;4996325;28;20377;-70
2021/04/17 09:34:04;;;;;;;;;;;16.60;99.90;;;;;;4996637;28;19929;-70
2021/04/17 09:36:31;;;;;;;;;;;16.60;99.90;;;;;;4996539;28;19971;-70
2021/04/17 09:38:58;;;;;;;;;;;16.60;99.90;;;;;;4997305;28;20008;-68
2021/04/17 09:41:25;;;;;;;;;;;16.60;99.90;;;;;;4998027;28;19910;-71
2021/04/17 09:43:55;;;;;;;;;;;16.60;99.90;;;;;;4998123;28;19961;-71
2021/04/17 09:46:23;;;;;;;;;;;16.60;99.90;;;;;;5003014;28;20253;-70
2021/04/17 09:48:50;;;;;;;;;;;16.50;99.90;;;;;;5004486;28;19909;-71
2021/04/17 09:51:23;;;;;;;;;;;16.60;99.90;;;;;;5003066;28;19917;-70
2021/04/17 09:53:51;;;;;;;;;;;16.50;99.90;;;;;;5002943;28;20395;-71
2021/04/17 09:56:27;;;;;;;;;;;16.50;99.90;;;;;;5001107;28;20269;-70
2021/04/17 09:58:55;;;;;;;;;;;16.50;99.90;;;;;;4999920;28;20000;-72
2021/04/17 10:01:22;;;;;;;;;;;16.50;99.90;;;;;;4997427;28;19909;-71
2021/04/17 10:03:53;;;;;;;;;;;16.50;99.90;;;;;;4996745;28;19924;-72
2021/04/17 10:06:29;;;;;;;;;;;16.50;99.90;;;;;;4995868;28;19910;-72
2021/04/17 10:08:57;;;;;;;;;;;16.50;99.90;;;;;;4995646;28;19964;-72
2021/04/17 10:11:28;;;;;;;;;;;16.40;99.90;;;;;;4995579;28;19910;-70
2021/04/17 10:13:55;;;;;;;;;;;16.40;99.90;;;;;;4995712;28;19910;-71
2021/04/17 10:16:26;;;;;;;;;;;16.40;99.90;;;;;;4995821;28;19917;-71
2021/04/17 10:18:53;;;;;;;;;;;16.30;99.90;;;;;;4995472;28;20467;-72
2021/04/17 10:21:27;;;;;;;;;;;16.20;99.90;;;;;;4995535;28;20009;-72
2021/04/17 10:24:12;;;;;;;;;;;16.20;99.90;;;;;;4995494;28;19917;-71
2021/04/17 10:27:08;;;;;;;;;;;16.20;99.90;;;;;;4995436;28;20441;-71
2021/04/17 10:29:49;;;;;;;;;;;16.10;99.90;;;;;;4982765;28;20001;-71
2021/04/17 10:32:21;;;;;;;;;;;16.10;99.90;;;;;;4995231;28;19940;-71
2021/04/17 10:34:49;;;;;;;;;;;16.00;99.90;;;;;;4995128;28;19910;-73
2021/04/17 10:37:17;;;;;;;;;;;16.00;99.90;;;;;;4995262;28;19910;-72
2021/04/17 10:40:02;;;;;;;;;;;15.90;99.90;;;;;;4995157;28;19910;-71
2021/04/17 10:42:46;;;;;;;;;;;15.90;99.90;;;;;;4994881;28;19910;-71
2021/04/17 10:45:14;;;;;;;;;;;15.80;99.90;;;;;;4995070;28;19950;-71
2021/04/17 10:47:41;;;;;;;;;;;15.80;99.90;;;;;;4994878;28;19918;-71
2021/04/17 10:50:34;;;;;;;;;;;15.80;99.90;;;;;;4995076;28;20009;-71
2021/04/17 10:53:05;;;;;;;;;;;15.80;99.90;;;;;;4991891;28;19999;-72
2021/04/17 10:55:32;;;;;;;;;;;15.80;99.90;;;;;;4994916;28;19982;-72
2021/04/17 10:57:58;;;;;;;;;;;15.80;99.90;;;;;;4977107;28;20368;-71
2021/04/17 11:00:29;;;;;;;;;;;15.80;99.90;;;;;;4994796;28;19957;-71
2021/04/17 11:02:55;;;;;;;;;;;15.80;99.90;;;;;;4994360;28;19914;-71
2021/04/17 11:05:22;;;;;;;;;;;15.80;99.90;;;;;;4994870;28;19941;-70
2021/04/17 11:07:57;;;;;;;;;;;15.80;99.90;;;;;;4994516;28;19913;-69
2021/04/17 11:10:34;;;;;;;;;;;15.80;99.90;;;;;;4994557;28;19909;-69
2021/04/17 11:13:01;;;;;;;;;;;15.80;99.90;;;;;;4994226;28;19909;-71
2021/04/17 11:15:29;;;;;;;;;;;15.80;99.90;;;;;;4994702;28;19914;-70
2021/04/17 11:18:09;;;;;;;;;;;15.80;99.90;;;;;;4994541;28;20423;-71
2021/04/17 11:20:59;;;;;;;;;;;15.70;99.90;;;;;;4994338;28;19917;-71
2021/04/17 11:23:35;;;;;;;;;;;15.70;99.90;;;;;;4994259;28;19918;-72
2021/04/17 11:26:14;;;;;;;;;;;15.70;99.90;;;;;;4994278;28;19996;-71
2021/04/17 11:28:42;;;;;;;;;;;15.70;99.90;;;;;;4994490;28;19926;-71
2021/04/17 11:31:10;;;;;;;;;;;15.60;99.90;;;;;;4994293;28;19988;-71
2021/04/17 11:33:37;;;;;;;;;;;15.60;99.90;;;;;;4994412;28;19910;-71
2021/04/17 11:36:04;;;;;;;;;;;15.50;99.90;;;;;;4994133;28;20005;-72
2021/04/17 11:38:30;;;;;;;;;;;15.50;99.90;;;;;;4994090;28;19957;-72
2021/04/17 11:40:57;;;;;;;;;;;15.40;99.90;;;;;;4976204;28;19960;-71
2021/04/17 11:43:24;;;;;;;;;;;15.40;99.90;;;;;;4993821;28;19921;-72
2021/04/17 11:45:51;;;;;;;;;;;15.40;99.90;;;;;;4993796;28;19977;-71
2021/04/17 11:48:18;;;;;;;;;;;15.40;99.90;;;;;;4993928;28;19921;-70
2021/04/17 11:50:45;;;;;;;;;;;15.30;99.90;;;;;;4992406;28;19964;-71
2021/04/17 11:53:12;;;;;;;;;;;15.30;99.90;;;;;;4993748;28;19972;-71
2021/04/17 11:55:39;;;;;;;;;;;15.30;99.90;;;;;;4993814;28;19916;-71
2021/04/17 11:58:06;;;;;;;;;;;15.30;99.90;;;;;;4993754;28;20319;-71
2021/04/17 12:00:36;;;;;;;;;;;15.30;99.90;;;;;;4993807;28;20383;-71
2021/04/17 12:03:03;;;;;;;;;;;15.40;99.90;;;;;;4993419;28;19956;-73
2021/04/17 12:05:29;;;;;;;;;;;15.40;99.90;;;;;;5004012;28;19910;-70
2021/04/17 12:07:56;;;;;;;;;;;15.50;99.90;;;;;;5006761;28;19910;-70
2021/04/17 12:10:23;;;;;;;;;;;15.50;99.90;;;;;;5007320;28;20376;-71
2021/04/17 12:12:50;;;;;;;;;;;15.50;99.90;;;;;;5008643;28;19910;-71
2021/04/17 12:15:17;;;;;;;;;;;15.50;99.90;;;;;;5007623;28;19910;-70
2021/04/17 12:17:44;;;;;;;;;;;15.60;99.90;;;;;;5009592;28;19910;-71
2021/04/17 12:20:14;;;;;;;;;;;15.60;99.90;;;;;;5008717;28;19910;-70
2021/04/17 12:22:41;;;;;;;;;;;15.50;99.90;;;;;;5007105;28;19910;-70
2021/04/17 12:25:08;;;;;;;;;;;15.50;99.90;;;;;;5006139;28;19914;-71
2021/04/17 12:27:36;;;;;;;;;;;15.50;99.90;;;;;;5000958;28;20423;-71
2021/04/17 12:30:04;;;;;;;;;;;15.40;99.90;;;;;;5000644;28;19956;-71
2021/04/17 12:32:30;;;;;;;;;;;15.40;99.90;;;;;;5001360;28;19917;-71
2021/04/17 12:34:57;;;;;;;;;;;15.30;99.90;;;;;;4997926;28;19926;-70
2021/04/17 12:37:24;;;;;;;;;;;15.30;99.90;;;;;;4997542;28;19910;-70
2021/04/17 12:39:51;;;;;;;;;;;15.30;99.90;;;;;;4997173;28;19932;-70
2021/04/17 12:42:17;;;;;;;;;;;15.30;99.90;;;;;;4997177;28;19945;-71
2021/04/17 12:44:44;;;;;;;;;;;15.20;99.90;;;;;;4997134;28;20107;-69
2021/04/17 12:47:11;;;;;;;;;;;15.20;99.90;;;;;;4996174;28;20292;-70
2021/04/17 12:49:37;;;;;;;;;;;15.20;99.90;;;;;;4997194;28;19914;-71
2021/04/17 12:52:04;;;;;;;;;;;15.20;99.90;;;;;;4997359;28;20430;-70
2021/04/17 12:54:32;;;;;;;;;;;15.20;99.90;;;;;;4997219;28;19909;-72
2021/04/17 12:56:58;;;;;;;;;;;15.20;99.90;;;;;;4996871;28;20001;-72
2021/04/17 12:59:25;;;;;;;;;;;15.20;99.90;;;;;;4997096;28;19909;-72
2021/04/17 13:01:52;;;;;;;;;;;15.20;99.90;;;;;;4997125;28;20001;-72
2021/04/17 13:04:19;;;;;;;;;;;15.20;99.90;;;;;;4996778;28;19928;-70
2021/04/17 13:06:45;;;;;;;;;;;15.20;99.90;;;;;;4996791;28;20280;-72
2021/04/17 13:09:12;;;;;;;;;;;15.10;99.90;;;;;;4996959;28;19916;-72
2021/04/17 13:11:39;;;;;;;;;;;15.10;99.90;;;;;;4996879;28;19920;-71
2021/04/17 13:14:06;;;;;;;;;;;15.10;99.90;;;;;;4996815;28;20323;-71
2021/04/17 13:16:32;;;;;;;;;;;15.10;99.90;;;;;;4996646;28;19917;-71
2021/04/17 13:18:59;;;;;;;;;;;15.10;99.90;;;;;;4996551;28;19910;-71
2021/04/17 13:21:26;;;;;;;;;;;15.10;99.90;;;;;;4996607;28;19909;-70
2021/04/17 13:23:52;;;;;;;;;;;15.10;99.90;;;;;;4996623;28;19983;-72
2021/04/17 13:26:19;;;;;;;;;;;15.00;99.90;;;;;;4979026;28;20467;-72
2021/04/17 13:28:46;;;;;;;;;;;15.10;99.90;;;;;;4996221;28;19909;-71
2021/04/17 13:31:13;;;;;;;;;;;15.00;99.90;;;;;;4996492;28;20348;-71
2021/04/17 13:33:40;;;;;;;;;;;14.90;99.90;;;;;;4996460;28;20304;-70
2021/04/17 13:36:07;;;;;;;;;;;14.90;99.90;;;;;;4996606;28;20361;-71
2021/04/17 13:38:35;;;;;;;;;;;14.90;99.90;;;;;;4996354;28;19952;-71
2021/04/17 13:41:01;;;;;;;;;;;14.90;99.90;;;;;;4996039;28;19910;-73
2021/04/17 13:43:29;;;;;;;;;;;14.90;99.90;;;;;;4996251;28;19918;-72
2021/04/17 13:45:56;;;;;;;;;;;14.90;99.90;;;;;;4996230;28;20357;-70
2021/04/17 13:48:22;;;;;;;;;;;14.90;99.90;;;;;;4996386;28;19909;-70
2021/04/17 13:50:49;;;;;;;;;;;14.80;99.90;;;;;;4995904;28;19909;-71
2021/04/17 13:53:16;;;;;;;;;;;14.90;99.90;;;;;;4996188;28;20293;-71
2021/04/17 13:55:43;;;;;;;;;;;14.90;99.90;;;;;;4995949;28;19910;-71
2021/04/17 13:58:09;;;;;;;;;;;14.80;99.90;;;;;;4996051;28;19910;-72
2021/04/17 14:00:36;;;;;;;;;;;14.80;99.90;;;;;;4995996;28;20004;-71
2021/04/17 14:03:03;;;;;;;;;;;14.80;99.90;;;;;;4995679;28;20456;-71
2021/04/17 14:05:30;;;;;;;;;;;14.70;99.90;;;;;;4995883;28;19996;-72
2021/04/17 14:07:56;;;;;;;;;;;14.60;99.90;;;;;;4995827;28;19909;-72
2021/04/17 14:10:23;;;;;;;;;;;14.50;99.90;;;;;;4995715;28;19933;-72
2021/04/17 14:12:51;;;;;;;;;;;14.50;99.90;;;;;;4995523;28;20353;-71
2021/04/17 14:15:24;;;;;;;;;;;14.50;99.90;;;;;;4995869;28;19910;-70
2021/04/17 14:17:50;;;;;;;;;;;14.50;99.90;;;;;;4995578;28;20427;-71
2021/04/17 14:20:18;;;;;;;;;;;14.50;99.90;;;;;;4995606;28;19949;-72
2021/04/17 14:22:44;;;;;;;;;;;14.50;99.90;;;;;;4995204;28;19917;-70
2021/04/17 14:25:11;;;;;;;;;;;14.50;99.90;;;;;;5002893;28;19968;-69